sensor_id;sensor_type;location;lat;lon;timestamp;P1;durP1;ratioP1;P2;durP2;ratioP2
73264;SDS011;61493;51.008;14.088;2022-07-23T00:01:20;3.60;;;3.03;;
73264;SDS011;61493;51.008;14.088;2022-07-23T00:03:46;3.95;;;3.10;;
73264;SDS011;61493;51.008;14.088;2022-07-23T00:06:12;4.57;;;3.33;;
73264;SDS011;61493;51.008;14.088;2022-07-23T00:08:37;4.80;;;3.38;;
73264;SDS011;61493;51.008;14.088;2022-07-23T00:11:03;5.18;;;3.33;;
73264;SDS011;61493;51.008;14.088;2022-07-23T00:13:28;5.00;;;3.47;;
73264;SDS011;61493;51.008;14.088;2022-07-23T00:15:54;3.50;;;2.90;;
73264;SDS011;61493;51.008;14.088;2022-07-23T00:18:20;4.72;;;3.03;;
73264;SDS011;61493;51.008;14.088;2022-07-23T00:20:46;4.32;;;3.03;;
73264;SDS011;61493;51.008;14.088;2022-07-23T00:23:11;4.90;;;3.67;;
73264;SDS011;61493;51.008;14.088;2022-07-23T00:25:36;3.95;;;3.15;;
73264;SDS011;61493;51.008;14.088;2022-07-23T00:28:02;5.10;;;3.35;;
73264;SDS011;61493;51.008;14.088;2022-07-23T00:30:29;4.68;;;3.15;;
73264;SDS011;61493;51.008;14.088;2022-07-23T00:32:55;5.10;;;3.03;;
73264;SDS011;61493;51.008;14.088;2022-07-23T00:35:22;4.50;;;3.42;;
73264;SDS011;61493;51.008;14.088;2022-07-23T00:37:53;4.05;;;3.30;;
73264;SDS011;61493;51.008;14.088;2022-07-23T00:40:19;3.97;;;3.17;;
73264;SDS011;61493;51.008;14.088;2022-07-23T00:42:44;4.18;;;3.03;;
73264;SDS011;61493;51.008;14.088;2022-07-23T00:45:10;4.35;;;3.03;;
73264;SDS011;61493;51.008;14.088;2022-07-23T00:47:35;3.45;;;3.13;;
73264;SDS011;61493;51.008;14.088;2022-07-23T00:50:02;3.95;;;2.78;;
73264;SDS011;61493;51.008;14.088;2022-07-23T00:52:28;6.68;;;3.40;;
73264;SDS011;61493;51.008;14.088;2022-07-23T00:54:54;3.70;;;3.00;;
73264;SDS011;61493;51.008;14.088;2022-07-23T00:57:20;4.93;;;3.08;;
73264;SDS011;61493;51.008;14.088;2022-07-23T00:59:45;4.45;;;3.28;;
73264;SDS011;61493;51.008;14.088;2022-07-23T01:02:10;4.53;;;3.80;;
73264;SDS011;61493;51.008;14.088;2022-07-23T01:04:36;4.68;;;3.28;;
73264;SDS011;61493;51.008;14.088;2022-07-23T01:07:01;4.38;;;3.13;;
73264;SDS011;61493;51.008;14.088;2022-07-23T01:09:26;3.70;;;3.08;;
73264;SDS011;61493;51.008;14.088;2022-07-23T01:11:52;3.60;;;2.95;;
73264;SDS011;61493;51.008;14.088;2022-07-23T01:14:19;5.43;;;3.50;;
73264;SDS011;61493;51.008;14.088;2022-07-23T01:16:46;4.07;;;3.28;;
73264;SDS011;61493;51.008;14.088;2022-07-23T01:19:12;10.88;;;3.95;;
73264;SDS011;61493;51.008;14.088;2022-07-23T01:21:40;5.28;;;3.80;;
73264;SDS011;61493;51.008;14.088;2022-07-23T01:24:08;5.95;;;3.65;;
73264;SDS011;61493;51.008;14.088;2022-07-23T01:26:34;4.85;;;3.80;;
73264;SDS011;61493;51.008;14.088;2022-07-23T01:29:00;5.30;;;3.55;;
73264;SDS011;61493;51.008;14.088;2022-07-23T01:31:26;7.68;;;4.32;;
73264;SDS011;61493;51.008;14.088;2022-07-23T01:33:51;4.65;;;3.40;;
73264;SDS011;61493;51.008;14.088;2022-07-23T01:36:17;6.18;;;3.92;;
73264;SDS011;61493;51.008;14.088;2022-07-23T01:38:42;4.25;;;3.00;;
73264;SDS011;61493;51.008;14.088;2022-07-23T01:41:08;5.10;;;3.65;;
73264;SDS011;61493;51.008;14.088;2022-07-23T01:43:33;7.43;;;3.60;;
73264;SDS011;61493;51.008;14.088;2022-07-23T01:45:58;4.45;;;3.30;;
73264;SDS011;61493;51.008;14.088;2022-07-23T01:48:23;4.70;;;3.35;;
73264;SDS011;61493;51.008;14.088;2022-07-23T01:50:49;4.93;;;3.60;;
73264;SDS011;61493;51.008;14.088;2022-07-23T01:53:14;4.28;;;3.30;;
73264;SDS011;61493;51.008;14.088;2022-07-23T01:55:40;5.72;;;4.10;;
73264;SDS011;61493;51.008;14.088;2022-07-23T01:58:06;5.15;;;3.75;;
73264;SDS011;61493;51.008;14.088;2022-07-23T02:00:31;5.10;;;3.58;;
73264;SDS011;61493;51.008;14.088;2022-07-23T02:02:57;3.95;;;3.17;;
73264;SDS011;61493;51.008;14.088;2022-07-23T02:05:23;5.18;;;3.67;;
73264;SDS011;61493;51.008;14.088;2022-07-23T02:07:49;5.25;;;3.50;;
73264;SDS011;61493;51.008;14.088;2022-07-23T02:10:14;3.90;;;3.15;;
73264;SDS011;61493;51.008;14.088;2022-07-23T02:12:40;5.68;;;3.80;;
73264;SDS011;61493;51.008;14.088;2022-07-23T02:15:08;5.07;;;3.58;;
73264;SDS011;61493;51.008;14.088;2022-07-23T02:17:34;5.65;;;3.70;;
73264;SDS011;61493;51.008;14.088;2022-07-23T02:19:59;5.80;;;4.07;;
73264;SDS011;61493;51.008;14.088;2022-07-23T02:22:24;6.63;;;3.58;;
73264;SDS011;61493;51.008;14.088;2022-07-23T02:24:50;7.75;;;4.10;;
73264;SDS011;61493;51.008;14.088;2022-07-23T02:27:15;7.28;;;4.30;;
73264;SDS011;61493;51.008;14.088;2022-07-23T02:29:40;6.50;;;4.28;;
73264;SDS011;61493;51.008;14.088;2022-07-23T02:32:05;6.65;;;3.88;;
73264;SDS011;61493;51.008;14.088;2022-07-23T02:34:31;6.28;;;4.47;;
73264;SDS011;61493;51.008;14.088;2022-07-23T02:36:56;5.78;;;3.92;;
73264;SDS011;61493;51.008;14.088;2022-07-23T02:39:21;7.38;;;4.80;;
73264;SDS011;61493;51.008;14.088;2022-07-23T02:41:47;6.25;;;4.35;;
73264;SDS011;61493;51.008;14.088;2022-07-23T02:44:12;9.00;;;4.68;;
73264;SDS011;61493;51.008;14.088;2022-07-23T02:46:37;6.45;;;4.50;;
73264;SDS011;61493;51.008;14.088;2022-07-23T02:49:02;6.43;;;3.95;;
73264;SDS011;61493;51.008;14.088;2022-07-23T02:51:29;6.75;;;4.03;;
73264;SDS011;61493;51.008;14.088;2022-07-23T02:53:55;8.68;;;3.95;;
73264;SDS011;61493;51.008;14.088;2022-07-23T02:56:20;6.97;;;4.60;;
73264;SDS011;61493;51.008;14.088;2022-07-23T02:58:45;6.75;;;3.95;;
73264;SDS011;61493;51.008;14.088;2022-07-23T03:01:11;5.82;;;4.28;;
73264;SDS011;61493;51.008;14.088;2022-07-23T03:03:36;8.55;;;4.30;;
73264;SDS011;61493;51.008;14.088;2022-07-23T03:06:01;6.43;;;4.32;;
73264;SDS011;61493;51.008;14.088;2022-07-23T03:08:27;8.43;;;5.47;;
73264;SDS011;61493;51.008;14.088;2022-07-23T03:10:52;5.38;;;3.75;;
73264;SDS011;61493;51.008;14.088;2022-07-23T03:13:17;7.75;;;4.70;;
73264;SDS011;61493;51.008;14.088;2022-07-23T03:15:43;5.65;;;3.65;;
73264;SDS011;61493;51.008;14.088;2022-07-23T03:18:08;5.13;;;3.80;;
73264;SDS011;61493;51.008;14.088;2022-07-23T03:20:33;6.05;;;4.38;;
73264;SDS011;61493;51.008;14.088;2022-07-23T03:22:58;5.97;;;4.15;;
73264;SDS011;61493;51.008;14.088;2022-07-23T03:25:24;9.45;;;4.63;;
73264;SDS011;61493;51.008;14.088;2022-07-23T03:27:49;6.40;;;3.92;;
73264;SDS011;61493;51.008;14.088;2022-07-23T03:30:14;6.97;;;4.70;;
73264;SDS011;61493;51.008;14.088;2022-07-23T03:32:40;5.50;;;4.15;;
73264;SDS011;61493;51.008;14.088;2022-07-23T03:35:05;5.53;;;3.85;;
73264;SDS011;61493;51.008;14.088;2022-07-23T03:37:30;7.18;;;4.30;;
73264;SDS011;61493;51.008;14.088;2022-07-23T03:39:56;5.30;;;4.07;;
73264;SDS011;61493;51.008;14.088;2022-07-23T03:42:21;5.63;;;4.05;;
73264;SDS011;61493;51.008;14.088;2022-07-23T03:44:46;4.70;;;3.33;;
73264;SDS011;61493;51.008;14.088;2022-07-23T03:47:12;5.22;;;3.20;;
73264;SDS011;61493;51.008;14.088;2022-07-23T03:49:37;5.45;;;3.67;;
73264;SDS011;61493;51.008;14.088;2022-07-23T03:52:03;6.50;;;4.20;;
73264;SDS011;61493;51.008;14.088;2022-07-23T03:54:28;6.18;;;3.90;;
73264;SDS011;61493;51.008;14.088;2022-07-23T03:56:53;6.10;;;4.03;;
73264;SDS011;61493;51.008;14.088;2022-07-23T03:59:19;7.32;;;4.25;;
73264;SDS011;61493;51.008;14.088;2022-07-23T04:01:44;7.75;;;4.53;;
73264;SDS011;61493;51.008;14.088;2022-07-23T04:04:09;11.85;;;4.97;;
73264;SDS011;61493;51.008;14.088;2022-07-23T04:06:35;8.25;;;4.35;;
73264;SDS011;61493;51.008;14.088;2022-07-23T04:09:00;5.90;;;4.57;;
73264;SDS011;61493;51.008;14.088;2022-07-23T04:11:25;7.05;;;4.90;;
73264;SDS011;61493;51.008;14.088;2022-07-23T04:13:51;7.93;;;4.47;;
73264;SDS011;61493;51.008;14.088;2022-07-23T04:16:16;6.40;;;4.70;;
73264;SDS011;61493;51.008;14.088;2022-07-23T04:18:41;6.82;;;4.63;;
73264;SDS011;61493;51.008;14.088;2022-07-23T04:21:07;6.97;;;4.28;;
73264;SDS011;61493;51.008;14.088;2022-07-23T04:23:32;4.30;;;3.47;;
73264;SDS011;61493;51.008;14.088;2022-07-23T04:25:57;6.30;;;4.57;;
73264;SDS011;61493;51.008;14.088;2022-07-23T04:28:22;6.13;;;4.38;;
73264;SDS011;61493;51.008;14.088;2022-07-23T04:30:48;4.22;;;3.47;;
73264;SDS011;61493;51.008;14.088;2022-07-23T04:33:13;6.00;;;4.57;;
73264;SDS011;61493;51.008;14.088;2022-07-23T04:35:38;4.80;;;3.97;;
73264;SDS011;61493;51.008;14.088;2022-07-23T04:38:04;5.60;;;4.20;;
73264;SDS011;61493;51.008;14.088;2022-07-23T04:40:29;4.75;;;3.72;;
73264;SDS011;61493;51.008;14.088;2022-07-23T04:42:54;6.90;;;4.43;;
73264;SDS011;61493;51.008;14.088;2022-07-23T04:45:20;6.50;;;4.57;;
73264;SDS011;61493;51.008;14.088;2022-07-23T04:47:46;5.78;;;4.20;;
73264;SDS011;61493;51.008;14.088;2022-07-23T04:50:11;6.75;;;4.63;;
73264;SDS011;61493;51.008;14.088;2022-07-23T04:52:36;4.70;;;3.95;;
73264;SDS011;61493;51.008;14.088;2022-07-23T04:55:02;6.93;;;4.82;;
73264;SDS011;61493;51.008;14.088;2022-07-23T04:57:27;5.57;;;4.28;;
73264;SDS011;61493;51.008;14.088;2022-07-23T04:59:53;5.88;;;3.67;;
73264;SDS011;61493;51.008;14.088;2022-07-23T05:02:18;6.88;;;4.30;;
73264;SDS011;61493;51.008;14.088;2022-07-23T05:04:43;5.00;;;4.13;;
73264;SDS011;61493;51.008;14.088;2022-07-23T05:12:19;7.28;;;5.30;;
73264;SDS011;61493;51.008;14.088;2022-07-23T05:14:44;5.28;;;4.22;;
73264;SDS011;61493;51.008;14.088;2022-07-23T05:17:10;7.90;;;4.88;;
73264;SDS011;61493;51.008;14.088;2022-07-23T05:19:35;6.65;;;4.78;;
73264;SDS011;61493;51.008;14.088;2022-07-23T05:22:00;7.30;;;5.32;;
73264;SDS011;61493;51.008;14.088;2022-07-23T05:24:26;7.65;;;5.47;;
73264;SDS011;61493;51.008;14.088;2022-07-23T05:26:51;9.82;;;6.05;;
73264;SDS011;61493;51.008;14.088;2022-07-23T05:29:16;7.03;;;4.55;;
73264;SDS011;61493;51.008;14.088;2022-07-23T05:31:41;6.82;;;4.88;;
73264;SDS011;61493;51.008;14.088;2022-07-23T05:34:07;6.47;;;5.20;;
73264;SDS011;61493;51.008;14.088;2022-07-23T05:36:32;6.55;;;4.72;;
73264;SDS011;61493;51.008;14.088;2022-07-23T05:38:58;5.53;;;4.65;;
73264;SDS011;61493;51.008;14.088;2022-07-23T05:41:23;7.03;;;4.97;;
73264;SDS011;61493;51.008;14.088;2022-07-23T05:43:49;6.90;;;5.55;;
73264;SDS011;61493;51.008;14.088;2022-07-23T05:46:14;9.20;;;5.13;;
73264;SDS011;61493;51.008;14.088;2022-07-23T05:48:39;9.70;;;5.28;;
73264;SDS011;61493;51.008;14.088;2022-07-23T05:51:04;9.55;;;4.93;;
73264;SDS011;61493;51.008;14.088;2022-07-23T05:53:31;8.20;;;5.97;;
73264;SDS011;61493;51.008;14.088;2022-07-23T05:55:57;7.03;;;4.93;;
73264;SDS011;61493;51.008;14.088;2022-07-23T05:58:22;6.60;;;4.43;;
73264;SDS011;61493;51.008;14.088;2022-07-23T06:00:48;11.00;;;5.78;;
73264;SDS011;61493;51.008;14.088;2022-07-23T06:03:14;6.78;;;5.15;;
73264;SDS011;61493;51.008;14.088;2022-07-23T06:05:39;9.65;;;6.13;;
73264;SDS011;61493;51.008;14.088;2022-07-23T06:08:04;7.78;;;5.35;;
73264;SDS011;61493;51.008;14.088;2022-07-23T06:10:29;6.97;;;5.45;;
73264;SDS011;61493;51.008;14.088;2022-07-23T06:12:55;6.80;;;5.50;;
73264;SDS011;61493;51.008;14.088;2022-07-23T06:15:20;7.95;;;5.60;;
73264;SDS011;61493;51.008;14.088;2022-07-23T06:17:45;10.02;;;6.05;;
73264;SDS011;61493;51.008;14.088;2022-07-23T06:20:11;9.32;;;6.20;;
73264;SDS011;61493;51.008;14.088;2022-07-23T06:22:37;7.22;;;5.43;;
73264;SDS011;61493;51.008;14.088;2022-07-23T06:25:02;8.23;;;6.00;;
73264;SDS011;61493;51.008;14.088;2022-07-23T06:27:28;8.25;;;6.22;;
73264;SDS011;61493;51.008;14.088;2022-07-23T06:29:53;7.93;;;6.32;;
73264;SDS011;61493;51.008;14.088;2022-07-23T06:32:19;7.00;;;5.10;;
73264;SDS011;61493;51.008;14.088;2022-07-23T06:34:44;7.95;;;5.82;;
73264;SDS011;61493;51.008;14.088;2022-07-23T06:37:12;6.80;;;5.60;;
73264;SDS011;61493;51.008;14.088;2022-07-23T06:39:37;7.20;;;5.40;;
73264;SDS011;61493;51.008;14.088;2022-07-23T06:42:02;7.50;;;6.00;;
73264;SDS011;61493;51.008;14.088;2022-07-23T06:44:28;9.50;;;6.07;;
73264;SDS011;61493;51.008;14.088;2022-07-23T06:46:53;9.15;;;5.72;;
73264;SDS011;61493;51.008;14.088;2022-07-23T06:49:19;7.05;;;5.75;;
73264;SDS011;61493;51.008;14.088;2022-07-23T06:51:44;7.25;;;5.65;;
73264;SDS011;61493;51.008;14.088;2022-07-23T06:54:10;6.68;;;5.38;;
73264;SDS011;61493;51.008;14.088;2022-07-23T06:56:35;9.30;;;5.97;;
73264;SDS011;61493;51.008;14.088;2022-07-23T06:59:00;6.50;;;5.60;;
73264;SDS011;61493;51.008;14.088;2022-07-23T07:01:26;7.88;;;5.70;;
73264;SDS011;61493;51.008;14.088;2022-07-23T07:03:57;7.70;;;5.82;;
73264;SDS011;61493;51.008;14.088;2022-07-23T07:06:22;6.70;;;5.63;;
73264;SDS011;61493;51.008;14.088;2022-07-23T07:08:47;6.53;;;4.95;;
73264;SDS011;61493;51.008;14.088;2022-07-23T07:11:13;6.07;;;4.68;;
73264;SDS011;61493;51.008;14.088;2022-07-23T07:13:38;6.68;;;5.18;;
73264;SDS011;61493;51.008;14.088;2022-07-23T07:16:04;6.95;;;4.68;;
73264;SDS011;61493;51.008;14.088;2022-07-23T07:18:29;6.95;;;4.88;;
73264;SDS011;61493;51.008;14.088;2022-07-23T07:20:55;5.85;;;4.32;;
73264;SDS011;61493;51.008;14.088;2022-07-23T07:23:21;5.65;;;4.43;;
73264;SDS011;61493;51.008;14.088;2022-07-23T07:25:47;7.20;;;4.18;;
73264;SDS011;61493;51.008;14.088;2022-07-23T07:28:12;6.57;;;4.38;;
73264;SDS011;61493;51.008;14.088;2022-07-23T07:30:38;7.20;;;4.25;;
73264;SDS011;61493;51.008;14.088;2022-07-23T07:33:03;11.43;;;5.57;;
73264;SDS011;61493;51.008;14.088;2022-07-23T07:35:29;6.47;;;4.97;;
73264;SDS011;61493;51.008;14.088;2022-07-23T07:37:56;10.98;;;6.18;;
73264;SDS011;61493;51.008;14.088;2022-07-23T07:40:21;18.05;;;6.22;;
73264;SDS011;61493;51.008;14.088;2022-07-23T07:42:47;8.50;;;5.88;;
73264;SDS011;61493;51.008;14.088;2022-07-23T07:45:14;7.63;;;5.80;;
73264;SDS011;61493;51.008;14.088;2022-07-23T07:47:40;7.72;;;5.75;;
73264;SDS011;61493;51.008;14.088;2022-07-23T07:50:06;11.65;;;6.43;;
73264;SDS011;61493;51.008;14.088;2022-07-23T07:52:33;6.97;;;5.25;;
73264;SDS011;61493;51.008;14.088;2022-07-23T07:54:58;5.93;;;4.68;;
73264;SDS011;61493;51.008;14.088;2022-07-23T07:57:26;7.90;;;6.47;;
73264;SDS011;61493;51.008;14.088;2022-07-23T07:59:52;7.15;;;6.15;;
73264;SDS011;61493;51.008;14.088;2022-07-23T08:02:17;7.13;;;6.05;;
73264;SDS011;61493;51.008;14.088;2022-07-23T08:04:42;7.55;;;6.13;;
73264;SDS011;61493;51.008;14.088;2022-07-23T08:07:08;9.68;;;6.88;;
73264;SDS011;61493;51.008;14.088;2022-07-23T08:09:33;7.15;;;5.20;;
73264;SDS011;61493;51.008;14.088;2022-07-23T08:12:01;7.15;;;5.50;;
73264;SDS011;61493;51.008;14.088;2022-07-23T08:14:27;6.93;;;5.25;;
73264;SDS011;61493;51.008;14.088;2022-07-23T08:16:52;13.30;;;7.18;;
73264;SDS011;61493;51.008;14.088;2022-07-23T08:19:20;6.57;;;5.50;;
73264;SDS011;61493;51.008;14.088;2022-07-23T08:21:46;6.20;;;5.18;;
73264;SDS011;61493;51.008;14.088;2022-07-23T08:24:11;7.35;;;5.63;;
73264;SDS011;61493;51.008;14.088;2022-07-23T08:26:36;6.43;;;5.72;;
73264;SDS011;61493;51.008;14.088;2022-07-23T08:29:01;6.60;;;5.28;;
73264;SDS011;61493;51.008;14.088;2022-07-23T08:31:27;7.03;;;5.60;;
73264;SDS011;61493;51.008;14.088;2022-07-23T08:33:52;7.32;;;5.50;;
73264;SDS011;61493;51.008;14.088;2022-07-23T08:36:18;47.60;;;10.73;;
73264;SDS011;61493;51.008;14.088;2022-07-23T08:38:43;6.95;;;5.38;;
73264;SDS011;61493;51.008;14.088;2022-07-23T08:41:08;5.88;;;4.88;;
73264;SDS011;61493;51.008;14.088;2022-07-23T08:43:34;6.25;;;5.15;;
73264;SDS011;61493;51.008;14.088;2022-07-23T08:46:01;5.22;;;4.72;;
73264;SDS011;61493;51.008;14.088;2022-07-23T08:48:28;5.70;;;4.78;;
73264;SDS011;61493;51.008;14.088;2022-07-23T08:50:56;8.15;;;5.30;;
73264;SDS011;61493;51.008;14.088;2022-07-23T08:53:24;5.70;;;4.93;;
73264;SDS011;61493;51.008;14.088;2022-07-23T08:55:51;6.28;;;4.80;;
73264;SDS011;61493;51.008;14.088;2022-07-23T08:58:21;6.10;;;4.40;;
73264;SDS011;61493;51.008;14.088;2022-07-23T09:00:47;6.20;;;4.35;;
73264;SDS011;61493;51.008;14.088;2022-07-23T09:03:17;5.30;;;4.70;;
73264;SDS011;61493;51.008;14.088;2022-07-23T09:05:44;5.65;;;4.38;;
73264;SDS011;61493;51.008;14.088;2022-07-23T09:10:46;5.45;;;4.50;;
73264;SDS011;61493;51.008;14.088;2022-07-23T09:13:25;4.90;;;4.10;;
73264;SDS011;61493;51.008;14.088;2022-07-23T09:15:54;5.28;;;4.70;;
73264;SDS011;61493;51.008;14.088;2022-07-23T09:21:13;7.78;;;5.10;;
73264;SDS011;61493;51.008;14.088;2022-07-23T09:23:54;5.72;;;4.90;;
73264;SDS011;61493;51.008;14.088;2022-07-23T09:26:26;12.50;;;5.80;;
73264;SDS011;61493;51.008;14.088;2022-07-23T09:31:34;9.82;;;5.43;;
73264;SDS011;61493;51.008;14.088;2022-07-23T09:36:32;6.80;;;5.50;;
73264;SDS011;61493;51.008;14.088;2022-07-23T09:38:57;5.35;;;4.70;;
73264;SDS011;61493;51.008;14.088;2022-07-23T09:41:23;6.28;;;4.95;;
73264;SDS011;61493;51.008;14.088;2022-07-23T09:43:54;6.65;;;4.80;;
73264;SDS011;61493;51.008;14.088;2022-07-23T09:46:21;7.18;;;5.35;;
73264;SDS011;61493;51.008;14.088;2022-07-23T09:48:51;6.18;;;5.03;;
73264;SDS011;61493;51.008;14.088;2022-07-23T09:51:23;6.20;;;4.97;;
73264;SDS011;61493;51.008;14.088;2022-07-23T09:53:52;6.30;;;4.75;;
73264;SDS011;61493;51.008;14.088;2022-07-23T09:56:17;6.90;;;5.38;;
73264;SDS011;61493;51.008;14.088;2022-07-23T09:58:45;6.55;;;5.82;;
73264;SDS011;61493;51.008;14.088;2022-07-23T10:01:13;6.57;;;5.65;;
73264;SDS011;61493;51.008;14.088;2022-07-23T10:03:40;6.10;;;5.45;;
73264;SDS011;61493;51.008;14.088;2022-07-23T10:06:07;5.82;;;4.93;;
73264;SDS011;61493;51.008;14.088;2022-07-23T10:08:36;6.38;;;5.47;;
73264;SDS011;61493;51.008;14.088;2022-07-23T10:11:05;7.88;;;5.88;;
73264;SDS011;61493;51.008;14.088;2022-07-23T10:13:31;6.53;;;5.25;;
73264;SDS011;61493;51.008;14.088;2022-07-23T10:16:20;6.45;;;5.50;;
73264;SDS011;61493;51.008;14.088;2022-07-23T10:18:46;8.35;;;5.38;;
73264;SDS011;61493;51.008;14.088;2022-07-23T10:21:12;7.18;;;5.32;;
73264;SDS011;61493;51.008;14.088;2022-07-23T10:24:12;5.35;;;4.38;;
73264;SDS011;61493;51.008;14.088;2022-07-23T10:26:51;7.65;;;5.80;;
73264;SDS011;61493;51.008;14.088;2022-07-23T10:38:43;5.95;;;4.50;;
73264;SDS011;61493;51.008;14.088;2022-07-23T10:43:38;5.30;;;4.10;;
73264;SDS011;61493;51.008;14.088;2022-07-23T10:46:22;5.30;;;4.43;;
73264;SDS011;61493;51.008;14.088;2022-07-23T10:54:38;5.60;;;4.20;;
73264;SDS011;61493;51.008;14.088;2022-07-23T10:57:10;5.60;;;3.93;;
73264;SDS011;61493;51.008;14.088;2022-07-23T11:02:33;4.50;;;4.10;;
73264;SDS011;61493;51.008;14.088;2022-07-23T11:04:59;4.28;;;3.42;;
73264;SDS011;61493;51.008;14.088;2022-07-23T11:07:26;5.85;;;4.32;;
73264;SDS011;61493;51.008;14.088;2022-07-23T11:09:51;5.57;;;4.20;;
73264;SDS011;61493;51.008;14.088;2022-07-23T11:20:12;6.45;;;4.13;;
73264;SDS011;61493;51.008;14.088;2022-07-23T11:22:46;5.53;;;4.13;;
73264;SDS011;61493;51.008;14.088;2022-07-23T11:25:14;5.70;;;3.97;;
73264;SDS011;61493;51.008;14.088;2022-07-23T11:27:54;6.50;;;4.78;;
73264;SDS011;61493;51.008;14.088;2022-07-23T11:32:52;4.78;;;4.05;;
73264;SDS011;61493;51.008;14.088;2022-07-23T11:35:39;6.55;;;4.68;;
73264;SDS011;61493;51.008;14.088;2022-07-23T11:38:39;6.65;;;5.43;;
73264;SDS011;61493;51.008;14.088;2022-07-23T11:40:57;5.63;;;5.00;;
73264;SDS011;61493;51.008;14.088;2022-07-23T11:43:23;6.13;;;4.88;;
73264;SDS011;61493;51.008;14.088;2022-07-23T11:45:50;6.20;;;5.05;;
73264;SDS011;61493;51.008;14.088;2022-07-23T11:48:18;6.15;;;4.55;;
73264;SDS011;61493;51.008;14.088;2022-07-23T11:50:48;5.03;;;4.18;;
73264;SDS011;61493;51.008;14.088;2022-07-23T11:53:21;6.78;;;5.10;;
73264;SDS011;61493;51.008;14.088;2022-07-23T11:56:07;6.72;;;4.97;;
73264;SDS011;61493;51.008;14.088;2022-07-23T11:58:34;6.40;;;4.75;;
73264;SDS011;61493;51.008;14.088;2022-07-23T12:01:00;5.72;;;4.95;;
73264;SDS011;61493;51.008;14.088;2022-07-23T12:03:26;7.35;;;4.80;;
73264;SDS011;61493;51.008;14.088;2022-07-23T12:05:55;6.07;;;4.43;;
73264;SDS011;61493;51.008;14.088;2022-07-23T12:08:21;5.72;;;5.13;;
73264;SDS011;61493;51.008;14.088;2022-07-23T12:10:46;5.13;;;4.57;;
73264;SDS011;61493;51.008;14.088;2022-07-23T12:13:16;6.10;;;4.45;;
73264;SDS011;61493;51.008;14.088;2022-07-23T12:15:44;6.25;;;4.35;;
73264;SDS011;61493;51.008;14.088;2022-07-23T12:18:13;7.13;;;4.97;;
73264;SDS011;61493;51.008;14.088;2022-07-23T12:21:03;7.00;;;5.07;;
73264;SDS011;61493;51.008;14.088;2022-07-23T12:23:28;6.45;;;4.68;;
73264;SDS011;61493;51.008;14.088;2022-07-23T12:25:54;6.30;;;5.00;;
73264;SDS011;61493;51.008;14.088;2022-07-23T12:28:21;8.32;;;4.70;;
73264;SDS011;61493;51.008;14.088;2022-07-23T12:30:52;6.38;;;4.38;;
73264;SDS011;61493;51.008;14.088;2022-07-23T12:35:55;6.18;;;4.40;;
73264;SDS011;61493;51.008;14.088;2022-07-23T12:38:27;6.07;;;4.75;;
73264;SDS011;61493;51.008;14.088;2022-07-23T12:40:54;6.15;;;4.60;;
73264;SDS011;61493;51.008;14.088;2022-07-23T12:43:25;5.22;;;4.20;;
73264;SDS011;61493;51.008;14.088;2022-07-23T12:46:03;6.45;;;4.53;;
73264;SDS011;61493;51.008;14.088;2022-07-23T12:48:36;5.03;;;4.28;;
73264;SDS011;61493;51.008;14.088;2022-07-23T12:51:08;5.05;;;4.20;;
73264;SDS011;61493;51.008;14.088;2022-07-23T12:56:09;6.10;;;4.22;;
73264;SDS011;61493;51.008;14.088;2022-07-23T12:58:40;6.43;;;5.10;;
73264;SDS011;61493;51.008;14.088;2022-07-23T13:01:07;6.80;;;4.53;;
73264;SDS011;61493;51.008;14.088;2022-07-23T13:03:37;5.80;;;3.92;;
73264;SDS011;61493;51.008;14.088;2022-07-23T13:06:07;7.07;;;5.18;;
73264;SDS011;61493;51.008;14.088;2022-07-23T13:08:34;7.75;;;5.25;;
73264;SDS011;61493;51.008;14.088;2022-07-23T13:11:02;7.25;;;4.95;;
73264;SDS011;61493;51.008;14.088;2022-07-23T13:13:30;7.20;;;5.07;;
73264;SDS011;61493;51.008;14.088;2022-07-23T13:15:57;6.38;;;5.13;;
73264;SDS011;61493;51.008;14.088;2022-07-23T13:18:23;6.97;;;4.97;;
73264;SDS011;61493;51.008;14.088;2022-07-23T13:20:49;5.93;;;5.30;;
73264;SDS011;61493;51.008;14.088;2022-07-23T13:23:15;7.60;;;5.20;;
73264;SDS011;61493;51.008;14.088;2022-07-23T13:25:41;7.05;;;5.25;;
73264;SDS011;61493;51.008;14.088;2022-07-23T13:28:07;5.80;;;5.05;;
73264;SDS011;61493;51.008;14.088;2022-07-23T13:30:32;6.68;;;5.50;;
73264;SDS011;61493;51.008;14.088;2022-07-23T13:32:58;6.13;;;4.63;;
73264;SDS011;61493;51.008;14.088;2022-07-23T13:35:24;6.88;;;5.28;;
73264;SDS011;61493;51.008;14.088;2022-07-23T13:37:49;6.72;;;5.00;;
73264;SDS011;61493;51.008;14.088;2022-07-23T13:40:17;6.68;;;4.80;;
73264;SDS011;61493;51.008;14.088;2022-07-23T13:42:43;6.53;;;4.88;;
73264;SDS011;61493;51.008;14.088;2022-07-23T13:45:08;7.97;;;5.15;;
73264;SDS011;61493;51.008;14.088;2022-07-23T13:47:34;6.57;;;4.93;;
73264;SDS011;61493;51.008;14.088;2022-07-23T13:49:59;5.60;;;4.65;;
73264;SDS011;61493;51.008;14.088;2022-07-23T13:52:24;6.53;;;4.93;;
73264;SDS011;61493;51.008;14.088;2022-07-23T13:54:50;6.38;;;4.97;;
73264;SDS011;61493;51.008;14.088;2022-07-23T13:57:15;7.35;;;5.45;;
73264;SDS011;61493;51.008;14.088;2022-07-23T13:59:41;6.10;;;4.95;;
73264;SDS011;61493;51.008;14.088;2022-07-23T14:02:06;4.95;;;4.47;;
73264;SDS011;61493;51.008;14.088;2022-07-23T14:04:31;6.78;;;5.05;;
73264;SDS011;61493;51.008;14.088;2022-07-23T14:06:57;5.63;;;4.70;;
73264;SDS011;61493;51.008;14.088;2022-07-23T14:09:23;7.03;;;4.85;;
73264;SDS011;61493;51.008;14.088;2022-07-23T14:11:49;5.13;;;4.57;;
73264;SDS011;61493;51.008;14.088;2022-07-23T14:14:15;6.32;;;4.93;;
73264;SDS011;61493;51.008;14.088;2022-07-23T14:16:41;5.60;;;4.82;;
73264;SDS011;61493;51.008;14.088;2022-07-23T14:19:06;7.93;;;5.18;;
73264;SDS011;61493;51.008;14.088;2022-07-23T14:21:32;6.35;;;5.10;;
73264;SDS011;61493;51.008;14.088;2022-07-23T14:23:57;7.57;;;5.33;;
73264;SDS011;61493;51.008;14.088;2022-07-23T14:26:23;7.35;;;5.03;;
73264;SDS011;61493;51.008;14.088;2022-07-23T14:28:48;6.57;;;5.03;;
73264;SDS011;61493;51.008;14.088;2022-07-23T14:31:14;6.53;;;5.35;;
73264;SDS011;61493;51.008;14.088;2022-07-23T14:33:39;7.15;;;5.20;;
73264;SDS011;61493;51.008;14.088;2022-07-23T14:36:04;6.78;;;4.90;;
73264;SDS011;61493;51.008;14.088;2022-07-23T14:38:30;6.68;;;4.88;;
73264;SDS011;61493;51.008;14.088;2022-07-23T14:40:55;8.05;;;5.47;;
73264;SDS011;61493;51.008;14.088;2022-07-23T14:43:21;8.30;;;5.60;;
73264;SDS011;61493;51.008;14.088;2022-07-23T14:45:49;7.68;;;5.13;;
73264;SDS011;61493;51.008;14.088;2022-07-23T14:48:14;8.20;;;5.53;;
73264;SDS011;61493;51.008;14.088;2022-07-23T14:50:40;6.07;;;4.80;;
73264;SDS011;61493;51.008;14.088;2022-07-23T14:53:05;6.97;;;4.85;;
73264;SDS011;61493;51.008;14.088;2022-07-23T14:55:31;7.50;;;4.82;;
73264;SDS011;61493;51.008;14.088;2022-07-23T14:57:57;6.55;;;4.53;;
73264;SDS011;61493;51.008;14.088;2022-07-23T15:00:24;6.40;;;5.20;;
73264;SDS011;61493;51.008;14.088;2022-07-23T15:02:50;6.28;;;4.88;;
73264;SDS011;61493;51.008;14.088;2022-07-23T15:05:16;6.05;;;4.38;;
73264;SDS011;61493;51.008;14.088;2022-07-23T15:07:41;4.95;;;4.38;;
73264;SDS011;61493;51.008;14.088;2022-07-23T15:10:07;6.00;;;4.60;;
73264;SDS011;61493;51.008;14.088;2022-07-23T15:12:32;6.32;;;5.15;;
73264;SDS011;61493;51.008;14.088;2022-07-23T15:14:58;6.90;;;4.68;;
73264;SDS011;61493;51.008;14.088;2022-07-23T15:17:23;6.45;;;4.85;;
73264;SDS011;61493;51.008;14.088;2022-07-23T15:19:49;6.25;;;4.57;;
73264;SDS011;61493;51.008;14.088;2022-07-23T15:22:15;6.13;;;4.43;;